createdAt,value
2018-05-02T16:09:44.739Z,95988.62
2018-05-02T16:15:41.638Z,95984.61
2018-05-02T17:10:10.762Z,96010.98
2018-05-02T17:15:01.560Z,96018.76
2018-05-02T17:17:31.795Z,96019.57
2018-05-02T17:20:02.553Z,96015.80
2018-05-02T17:22:32.772Z,96015.26
2018-05-02T17:25:02.630Z,96015.84
2018-05-02T17:27:34.561Z,96015.16
2018-05-02T17:30:04.857Z,96007.92
2018-05-02T17:32:34.643Z,96011.36
2018-05-02T17:35:04.739Z,96008.09
2018-05-02T17:37:35.492Z,96004.83
2018-05-02T17:40:06.712Z,96011.69
2018-05-02T17:42:37.535Z,96012.17
2018-05-02T17:45:07.879Z,96020.56
2018-05-02T17:47:37.629Z,96018.91
2018-05-02T17:50:08.176Z,96024.81
2018-05-02T18:01:39.641Z,96029.37
2018-05-02T18:04:11.819Z,96037.42
2018-05-02T18:06:41.667Z,96040.08
2018-05-02T18:09:11.872Z,96033.04
2018-05-02T18:11:41.650Z,96034.09
2018-05-02T18:14:11.847Z,96033.59
2018-05-02T18:16:42.619Z,96035.63
2018-05-02T18:19:13.727Z,96039.43
2018-05-02T18:21:43.648Z,96041.20
2018-05-02T18:24:13.883Z,96045.52
2018-05-02T18:26:43.655Z,96040.58
2018-05-02T18:29:13.879Z,96044.59
2018-05-02T18:32:47.729Z,96048.67
2018-05-02T18:35:18.550Z,96050.64
2018-05-02T18:37:48.786Z,96041.36
2018-05-02T18:40:19.630Z,96044.83
2018-05-02T18:46:56.590Z,96007.04
2018-05-02T18:49:28.082Z,96006.16
2018-05-02T18:51:58.915Z,96010.08
2018-05-02T18:54:29.368Z,96012.25
2018-05-02T18:56:59.426Z,96018.20
2018-05-02T18:59:30.687Z,96022.61
2018-05-02T19:02:00.817Z,96025.80
2018-05-02T19:04:31.271Z,96023.73
2018-05-02T19:07:01.703Z,96026.70
2018-05-02T19:09:31.790Z,96026.51
2018-05-02T19:12:02.631Z,96029.36
2018-05-02T19:14:33.079Z,96027.11
2018-05-02T19:17:03.175Z,96039.00
2018-05-02T19:19:38.485Z,96035.02
2018-05-02T19:22:09.656Z,96029.59
2018-05-02T19:24:44.903Z,96036.13
2018-05-02T19:27:16.364Z,96028.56
2018-05-02T19:29:47.312Z,96026.82
2018-05-02T19:32:23.279Z,96031.63
2018-05-02T19:34:53.764Z,96029.08
2018-05-02T19:37:24.371Z,96029.78
2018-05-02T19:39:59.965Z,96028.15
2018-05-02T19:56:00.045Z,96057.19
2018-05-02T19:58:30.154Z,96060.36
2018-05-02T20:14:33.026Z,96071.09
2018-05-02T20:17:03.642Z,96064.97
2018-05-02T20:19:34.271Z,96062.82
2018-05-02T20:22:04.878Z,96066.19
2018-05-02T20:24:36.275Z,96060.16
2018-05-02T20:27:06.888Z,96061.49
2018-05-02T20:29:37.529Z,96055.36
2018-05-02T20:32:07.956Z,96047.28
2018-05-02T20:34:38.594Z,96046.35
2018-05-02T20:37:08.688Z,96050.34
2018-05-02T20:39:39.559Z,96049.53
2018-05-02T20:42:09.980Z,96048.61
2018-05-02T20:44:40.630Z,96038.56
2018-05-02T20:47:11.210Z,96045.20
2018-05-02T20:49:42.616Z,96046.98
2018-05-02T20:52:13.236Z,96047.97
2018-05-02T20:54:43.431Z,96045.72
2018-05-02T20:57:13.960Z,96042.55
2018-05-02T20:59:44.595Z,96048.79
2018-05-02T21:02:15.205Z,96042.25
2018-05-02T21:04:46.429Z,96051.14
2018-05-02T21:07:16.855Z,96047.16
2018-05-02T21:09:47.500Z,96053.81
2018-05-02T21:12:18.249Z,96048.59
2018-05-02T21:14:48.910Z,96049.52
2018-05-02T21:17:19.340Z,96052.17
2018-05-02T21:19:49.983Z,96053.20
2018-05-02T21:22:20.094Z,96051.36
2018-05-02T21:24:50.526Z,96060.66
2018-05-02T21:27:21.142Z,96055.86
2018-05-02T21:29:51.594Z,96056.78
2018-05-02T21:32:22.208Z,96050.63
2018-05-02T21:34:52.308Z,96046.23
2018-05-02T21:37:22.992Z,96051.24
2018-05-02T21:39:53.621Z,96048.07
2018-05-02T21:42:24.192Z,96052.16
2018-05-02T21:44:54.287Z,96056.16
2018-05-02T21:47:24.975Z,96057.59
2018-05-02T21:49:55.870Z,96063.31
2018-05-02T21:52:26.547Z,96058.00
2018-05-02T21:54:57.966Z,96060.25
2018-05-02T21:57:28.603Z,96061.69
2018-05-02T21:59:58.719Z,96062.09
2018-05-02T22:02:29.132Z,96066.67
2018-05-02T22:04:59.778Z,96065.45
2018-05-02T22:07:30.432Z,96070.25
2018-05-02T22:10:01.041Z,96067.59
2018-05-02T22:12:31.690Z,96068.10
2018-05-02T22:15:02.126Z,96066.77
2018-05-02T22:17:32.776Z,96068.62
2018-05-02T22:20:03.191Z,96066.88
2018-05-02T22:22:33.599Z,96063.92
2018-05-02T22:25:04.238Z,96062.08
2018-05-02T22:27:35.440Z,96063.92
2018-05-02T22:30:05.395Z,96059.94
2018-05-02T22:32:35.474Z,96056.46
2018-05-02T22:35:05.871Z,96057.38
2018-05-02T22:37:37.280Z,96057.89
2018-05-02T22:40:07.894Z,96061.03
2018-05-02T22:42:38.322Z,96061.03
2018-05-02T22:45:09.159Z,96065.02
2018-05-02T22:47:39.804Z,96066.05
2018-05-02T22:50:10.447Z,96071.27
2018-05-02T22:52:40.870Z,96071.78
2018-05-02T22:55:12.116Z,96074.95
2018-05-02T22:57:42.722Z,96076.28
2018-05-02T23:00:12.839Z,96078.13
2018-05-02T23:02:43.322Z,96086.50
2018-05-02T23:05:14.078Z,96092.23
2018-05-02T23:07:44.483Z,96101.13
2018-05-02T23:10:14.936Z,96102.97
2018-05-02T23:12:45.542Z,96102.56
2018-05-02T23:15:16.181Z,96102.66
2018-05-02T23:17:46.794Z,96098.68
2018-05-02T23:20:17.268Z,96091.63
2018-05-02T23:22:47.877Z,96092.44
2018-05-02T23:25:18.386Z,96092.84
2018-05-02T23:27:48.815Z,96094.28
2018-05-02T23:30:19.451Z,96102.26
2018-05-02T23:32:50.265Z,96102.73
2018-05-02T23:35:20.696Z,96103.25
2018-05-02T23:37:51.139Z,96107.34
2018-05-02T23:40:21.766Z,96104.69
2018-05-02T23:42:52.384Z,96106.42
2018-05-02T23:45:22.839Z,96105.50
2018-05-02T23:47:53.445Z,96105.61
2018-05-02T23:50:24.079Z,96106.53
2018-05-02T23:52:54.686Z,96106.94
2018-05-02T23:55:26.090Z,96105.20
2018-05-02T23:57:56.518Z,96112.77
